createdAt,value
2018-07-06T00:01:28.479Z,95711.00
2018-07-06T00:04:15.606Z,95708.00
2018-07-06T00:07:02.892Z,95703.00
2018-07-06T00:09:49.930Z,95716.00
2018-07-06T00:12:36.954Z,95702.00
2018-07-06T00:15:24.110Z,95711.00
2018-07-06T00:18:11.265Z,95710.00
2018-07-06T00:20:58.205Z,95697.00
2018-07-06T00:23:45.468Z,95698.00
2018-07-06T00:26:32.666Z,95691.00
2018-07-06T00:29:20.118Z,95703.00
2018-07-06T00:32:08.026Z,95697.00
2018-07-06T00:34:55.154Z,95695.00
2018-07-06T00:37:42.195Z,95689.00
2018-07-06T00:40:29.268Z,95698.00
2018-07-06T00:43:16.436Z,95704.00
2018-07-06T00:46:03.987Z,95706.00
2018-07-06T00:48:50.983Z,95704.00
2018-07-06T00:51:38.013Z,95705.00
2018-07-06T00:54:25.194Z,95708.00
2018-07-06T00:57:12.263Z,95717.00
2018-07-06T00:59:59.557Z,95715.00
2018-07-06T01:02:46.657Z,95720.00
2018-07-06T01:05:33.805Z,95725.00
2018-07-06T01:08:21.002Z,95724.00
2018-07-06T01:11:08.155Z,95720.00
2018-07-06T01:13:55.319Z,95724.00
2018-07-06T01:16:42.441Z,95724.00
2018-07-06T01:19:29.626Z,95716.00
2018-07-06T01:22:16.592Z,95711.00
2018-07-06T01:25:03.795Z,95705.00
2018-07-06T01:27:50.842Z,95701.00
2018-07-06T01:30:37.870Z,95707.00
2018-07-06T01:33:25.069Z,95715.00
2018-07-06T01:36:12.208Z,95710.00
2018-07-06T01:38:59.295Z,95702.00
2018-07-06T01:41:46.422Z,95699.00
2018-07-06T01:44:33.616Z,95696.00
2018-07-06T01:47:20.745Z,95697.00
2018-07-06T01:50:07.847Z,95707.00
2018-07-06T01:52:55.057Z,95706.00
2018-07-06T01:55:42.240Z,95707.00
2018-07-06T01:58:29.297Z,95702.00
2018-07-06T02:01:16.394Z,95704.00
2018-07-06T02:04:03.578Z,95698.00
2018-07-06T02:06:50.570Z,95706.00
2018-07-06T02:09:37.657Z,95703.00
2018-07-06T02:12:24.662Z,95701.00
2018-07-06T02:15:12.145Z,95704.00
2018-07-06T02:17:59.223Z,95717.00
2018-07-06T02:20:46.302Z,95711.00
2018-07-06T02:23:33.386Z,95704.00
2018-07-06T02:26:20.407Z,95705.00
2018-07-06T02:29:07.517Z,95703.00
2018-07-06T02:31:54.588Z,95693.00
2018-07-06T02:34:41.759Z,95705.00
2018-07-06T02:37:29.071Z,95698.00
2018-07-06T02:40:16.221Z,95695.00
2018-07-06T02:43:03.296Z,95703.00
2018-07-06T02:45:50.606Z,95694.00
2018-07-06T02:48:37.939Z,95696.00
2018-07-06T02:51:24.994Z,95697.00
2018-07-06T02:54:12.255Z,95698.00
2018-07-06T02:56:59.373Z,95699.00
2018-07-06T02:59:46.746Z,95690.00
2018-07-06T03:02:33.922Z,95689.00
2018-07-06T03:05:21.102Z,95683.00
2018-07-06T03:08:08.066Z,95688.00
2018-07-06T03:10:55.240Z,95698.00
2018-07-06T03:13:42.338Z,95690.00
2018-07-06T03:16:29.352Z,95696.00
2018-07-06T03:19:16.287Z,95697.00
2018-07-06T03:22:03.348Z,95690.00
2018-07-06T03:24:50.648Z,95691.00
2018-07-06T03:27:37.804Z,95692.00
2018-07-06T03:30:25.127Z,95685.00
2018-07-06T03:33:12.374Z,95684.00
2018-07-06T03:35:59.834Z,95688.00
2018-07-06T03:38:47.223Z,95691.00
2018-07-06T03:41:34.426Z,95695.00
2018-07-06T03:44:21.555Z,95699.00
2018-07-06T03:47:08.771Z,95694.00
2018-07-06T03:49:55.806Z,95705.00
2018-07-06T03:52:42.718Z,95696.00
2018-07-06T03:55:30.027Z,95694.00
2018-07-06T03:58:17.344Z,95701.00
2018-07-06T04:01:04.723Z,95696.00
2018-07-06T04:03:51.861Z,95702.00
2018-07-06T04:06:38.978Z,95701.00
2018-07-06T04:09:26.087Z,95714.00
2018-07-06T04:12:13.223Z,95695.00
2018-07-06T04:15:00.266Z,95703.00
2018-07-06T04:17:47.726Z,95720.00
2018-07-06T04:20:34.802Z,95708.00
2018-07-06T04:23:21.879Z,95725.00
2018-07-06T04:26:09.318Z,95719.00
2018-07-06T04:28:56.533Z,95724.00
2018-07-06T04:31:43.630Z,95720.00
2018-07-06T04:34:30.779Z,95722.00
2018-07-06T04:37:17.878Z,95724.00
2018-07-06T04:40:04.938Z,95727.00
2018-07-06T04:42:52.191Z,95726.00
2018-07-06T04:45:39.364Z,95731.00
2018-07-06T04:51:22.182Z,95733.00
2018-07-06T04:54:09.344Z,95746.00
2018-07-06T04:56:56.291Z,95744.00
2018-07-06T04:59:43.543Z,95746.00
2018-07-06T05:02:30.510Z,95743.00
2018-07-06T05:05:17.580Z,95754.00
2018-07-06T05:08:04.848Z,95757.00
2018-07-06T05:10:52.041Z,95746.00
2018-07-06T05:13:39.116Z,95757.00
2018-07-06T05:16:26.211Z,95751.00
2018-07-06T05:19:13.282Z,95756.00
2018-07-06T05:22:00.287Z,95749.00
2018-07-06T05:24:47.302Z,95746.00
2018-07-06T05:27:34.427Z,95752.00
2018-07-06T05:30:21.538Z,95760.00
2018-07-06T05:33:08.654Z,95758.00
2018-07-06T05:35:55.958Z,95770.00
2018-07-06T05:38:43.095Z,95774.00
2018-07-06T05:41:30.159Z,95782.00
2018-07-06T05:44:17.300Z,95779.00
2018-07-06T05:47:04.315Z,95777.00
2018-07-06T05:49:51.479Z,95784.00
2018-07-06T05:52:38.547Z,95786.00
2018-07-06T05:55:25.583Z,95777.00
2018-07-06T05:58:12.493Z,95778.00
2018-07-06T06:00:59.826Z,95782.00
2018-07-06T06:03:46.832Z,95784.00
2018-07-06T06:06:34.095Z,95791.00
2018-07-06T06:09:02.776Z,95787.00
2018-07-06T06:11:33.071Z,95793.00
2018-07-06T06:14:03.273Z,95799.00
2018-07-06T06:16:33.461Z,95801.00
2018-07-06T06:19:03.687Z,95805.00
2018-07-06T06:21:33.896Z,95817.00
2018-07-06T06:24:04.071Z,95815.00
2018-07-06T06:26:34.299Z,95817.00
2018-07-06T06:29:04.827Z,95818.00
2018-07-06T06:31:35.158Z,95819.00
2018-07-06T06:34:05.330Z,95816.00
2018-07-06T06:36:35.687Z,95821.00
2018-07-06T06:39:05.918Z,95821.00
2018-07-06T06:41:36.227Z,95831.00
2018-07-06T06:44:06.463Z,95822.00
2018-07-06T06:46:36.808Z,95827.00
2018-07-06T06:49:07.138Z,95834.00
2018-07-06T06:51:37.386Z,95837.00
2018-07-06T06:54:07.602Z,95841.00
2018-07-06T06:56:37.874Z,95838.00
2018-07-06T06:59:08.132Z,95846.00
2018-07-06T07:01:38.654Z,95846.00
2018-07-06T07:04:08.940Z,95840.00
2018-07-06T07:06:39.407Z,95846.00
2018-07-06T07:09:09.623Z,95845.00
2018-07-06T07:11:39.944Z,95840.00
2018-07-06T07:14:10.286Z,95851.00
2018-07-06T07:16:40.734Z,95848.00
2018-07-06T07:19:10.921Z,95844.00
2018-07-06T07:21:41.231Z,95845.00
2018-07-06T07:24:11.826Z,95848.00
2018-07-06T07:26:42.127Z,95848.00
2018-07-06T07:29:12.451Z,95857.00
2018-07-06T07:31:42.717Z,95855.00
2018-07-06T07:34:13.001Z,95847.00
2018-07-06T07:36:43.331Z,95852.00
2018-07-06T07:39:14.034Z,95860.00
2018-07-06T07:41:44.355Z,95858.00
2018-07-06T07:44:14.825Z,95856.00
2018-07-06T07:46:45.150Z,95855.00
2018-07-06T07:49:15.064Z,95857.00
2018-07-06T07:52:04.458Z,95851.00
2018-07-06T07:54:45.627Z,95856.00
2018-07-06T07:57:15.962Z,95862.00
2018-07-06T07:59:46.905Z,95851.00
2018-07-06T08:02:17.694Z,95865.00
2018-07-06T08:04:48.510Z,95866.00
2018-07-06T08:07:19.612Z,95873.00
2018-07-06T08:09:49.853Z,95870.00
2018-07-06T08:12:20.115Z,95874.00
2018-07-06T08:14:50.567Z,95880.00
2018-07-06T08:19:44.371Z,95877.00
2018-07-06T08:22:14.615Z,95871.00
2018-07-06T08:24:44.906Z,95880.00
2018-07-06T08:27:15.171Z,95894.00
2018-07-06T08:29:45.444Z,95882.00
2018-07-06T08:32:15.692Z,95884.00
2018-07-06T08:35:02.874Z,95884.00
2018-07-06T08:37:51.019Z,95890.00
2018-07-06T08:40:22.342Z,95892.00
2018-07-06T08:42:57.691Z,95898.00
2018-07-06T08:45:28.216Z,95893.00
2018-07-06T08:47:58.447Z,95899.00
2018-07-06T08:50:28.877Z,95896.00
2018-07-06T08:52:59.424Z,95899.00
2018-07-06T08:55:29.957Z,95898.00
2018-07-06T08:57:59.999Z,95901.00
2018-07-06T09:00:31.859Z,95901.00
2018-07-06T09:03:02.345Z,95896.00
2018-07-06T09:07:51.818Z,95901.00
2018-07-06T09:10:22.039Z,95909.00
2018-07-06T09:12:53.214Z,95916.00
2018-07-06T09:15:23.798Z,95914.00
2018-07-06T09:17:59.970Z,95916.00
2018-07-06T09:20:30.215Z,95924.00
2018-07-06T09:23:00.864Z,95923.00
2018-07-06T09:25:31.221Z,95916.00
2018-07-06T09:28:01.823Z,95916.00
2018-07-06T09:30:32.079Z,95917.00
2018-07-06T09:33:02.522Z,95920.00
2018-07-06T09:35:33.482Z,95918.00
2018-07-06T09:38:03.914Z,95921.00
2018-07-06T09:40:34.195Z,95920.00
2018-07-06T09:43:04.676Z,95953.00
2018-07-06T09:45:35.219Z,95925.00
2018-07-06T09:48:05.931Z,95925.00
2018-07-06T09:50:36.203Z,95929.00
2018-07-06T09:53:07.335Z,95938.00
2018-07-06T09:55:38.284Z,95940.00
2018-07-06T09:58:08.771Z,95953.00
2018-07-06T10:00:44.205Z,95955.00
2018-07-06T10:03:14.830Z,95950.00
2018-07-06T10:05:45.105Z,95954.00
2018-07-06T10:08:15.364Z,95957.00
2018-07-06T10:10:45.696Z,95945.00
2018-07-06T10:13:16.061Z,95943.00
2018-07-06T10:15:46.336Z,95940.00
2018-07-06T10:18:16.742Z,95934.00
2018-07-06T10:20:47.033Z,95931.00
2018-07-06T10:23:17.436Z,95936.00
2018-07-06T10:25:47.742Z,95936.00
2018-07-06T10:32:57.096Z,95931.00
2018-07-06T10:35:27.785Z,95939.00
2018-07-06T10:37:58.215Z,95934.00
2018-07-06T10:40:28.810Z,95932.00
2018-07-06T10:42:59.795Z,95934.00
2018-07-06T10:45:31.420Z,95939.00
2018-07-06T10:48:05.188Z,95927.00
2018-07-06T10:50:35.841Z,95938.00
2018-07-06T10:53:11.675Z,95924.00
2018-07-06T10:55:42.449Z,95925.00
2018-07-06T10:58:12.862Z,95927.00
2018-07-06T11:00:43.536Z,95929.00
2018-07-06T11:03:13.450Z,95925.00
2018-07-06T11:05:43.599Z,95929.00
2018-07-06T11:08:13.938Z,95932.00
2018-07-06T11:10:44.467Z,95935.00
2018-07-06T11:13:14.924Z,95932.00
2018-07-06T11:15:45.654Z,95931.00
2018-07-06T11:18:15.893Z,95933.00
2018-07-06T11:20:46.484Z,95932.00
2018-07-06T11:23:16.768Z,95934.00
2018-07-06T11:25:47.590Z,95927.00
2018-07-06T11:28:17.896Z,95924.00
2018-07-06T11:30:49.100Z,95926.00
2018-07-06T11:33:19.363Z,95928.00
2018-07-06T11:35:50.263Z,95929.00
2018-07-06T11:38:20.635Z,95939.00
2018-07-06T11:40:50.983Z,95940.00
2018-07-06T11:43:21.658Z,95944.00
2018-07-06T11:45:53.355Z,95939.00
2018-07-06T11:48:25.658Z,95943.00
2018-07-06T11:50:56.525Z,95943.00
2018-07-06T11:53:30.559Z,95947.00
2018-07-06T11:56:00.980Z,95940.00
2018-07-06T11:58:34.094Z,95947.00
2018-07-06T12:01:04.776Z,95947.00
2018-07-06T12:04:13.523Z,95940.00
2018-07-06T12:06:44.837Z,95952.00
2018-07-06T12:09:16.154Z,95953.00
2018-07-06T12:11:49.403Z,95951.00
2018-07-06T12:14:22.240Z,95950.00
2018-07-06T12:16:55.006Z,95953.00
2018-07-06T12:19:25.903Z,95954.00
2018-07-06T12:21:56.632Z,95948.00
2018-07-06T12:24:27.908Z,95960.00
2018-07-06T12:26:58.645Z,95958.00
2018-07-06T12:29:29.674Z,95962.00
2018-07-06T12:32:00.296Z,95961.00
2018-07-06T12:34:30.648Z,95957.00
2018-07-06T12:37:01.328Z,95962.00
2018-07-06T12:39:31.936Z,95957.00
2018-07-06T12:42:02.843Z,95970.00
2018-07-06T12:44:33.555Z,95956.00
2018-07-06T12:47:04.965Z,95945.00
2018-07-06T12:49:35.289Z,95949.00
2018-07-06T12:52:06.188Z,95955.00
2018-07-06T12:54:36.658Z,95943.00
2018-07-06T12:57:07.258Z,95950.00
2018-07-06T12:59:45.019Z,95953.00
2018-07-06T13:02:15.306Z,95943.00
2018-07-06T13:04:46.204Z,95948.00
2018-07-06T13:07:16.696Z,95946.00
2018-07-06T13:09:47.178Z,95952.00
2018-07-06T13:12:17.495Z,95942.00
2018-07-06T13:14:48.398Z,95931.00
2018-07-06T13:17:18.751Z,95933.00
2018-07-06T13:19:49.128Z,95933.00
2018-07-06T13:22:19.472Z,95934.00
2018-07-06T13:24:50.867Z,95935.00
2018-07-06T13:27:21.590Z,95944.00
2018-07-06T13:29:51.950Z,95952.00
2018-07-06T13:32:22.284Z,95942.00
2018-07-06T13:34:52.508Z,95944.00
2018-07-06T13:37:22.727Z,95951.00
2018-07-06T13:39:53.015Z,95971.00
2018-07-06T13:42:23.622Z,95960.00
2018-07-06T13:44:53.966Z,95957.00
2018-07-06T13:47:24.562Z,95957.00
2018-07-06T13:49:54.847Z,95956.00
2018-07-06T13:52:25.381Z,95970.00
2018-07-06T13:54:55.884Z,95957.00
2018-07-06T13:57:26.182Z,95959.00
2018-07-06T13:59:56.371Z,95956.00
2018-07-06T14:02:27.159Z,95961.00
2018-07-06T14:05:03.934Z,95961.00
2018-07-06T14:07:34.167Z,96167.00
2018-07-06T14:10:04.866Z,95955.00
2018-07-06T14:12:35.445Z,95953.00
2018-07-06T14:15:06.044Z,95958.00
2018-07-06T14:17:36.363Z,95965.00
2018-07-06T14:20:06.922Z,95959.00
2018-07-06T14:22:37.495Z,95957.00
2018-07-06T14:25:08.196Z,95971.00
2018-07-06T14:27:40.069Z,95970.00
2018-07-06T14:30:10.450Z,95982.00
2018-07-06T14:32:42.675Z,95984.00
2018-07-06T14:35:16.858Z,95986.00
2018-07-06T14:37:49.321Z,95976.00
2018-07-06T14:40:19.877Z,95975.00
2018-07-06T14:42:50.868Z,95970.00
2018-07-06T14:45:21.227Z,95972.00
2018-07-06T14:47:51.546Z,95963.00
2018-07-06T14:50:22.760Z,95963.00
2018-07-06T14:52:53.191Z,95957.00
2018-07-06T14:55:23.477Z,95960.00
2018-07-06T14:57:54.556Z,95958.00
2018-07-06T15:00:24.842Z,95953.00
2018-07-06T15:02:55.294Z,95953.00
2018-07-06T15:05:26.030Z,95960.00
2018-07-06T15:07:56.873Z,95959.00
2018-07-06T15:10:28.981Z,95961.00
2018-07-06T15:13:00.748Z,95953.00
2018-07-06T15:15:32.544Z,95959.00
2018-07-06T15:18:07.016Z,95959.00
2018-07-06T15:20:37.845Z,95964.00
2018-07-06T15:23:12.060Z,95962.00
2018-07-06T15:25:46.566Z,95977.00
2018-07-06T15:28:23.350Z,95970.00
2018-07-06T15:31:00.144Z,95970.00
2018-07-06T15:33:31.035Z,95973.00
2018-07-06T15:36:01.239Z,95965.00
2018-07-06T15:38:33.754Z,95972.00
2018-07-06T15:41:04.474Z,95971.00
2018-07-06T15:43:42.798Z,95966.00
2018-07-06T15:46:23.247Z,95961.00
2018-07-06T15:48:53.560Z,95961.00
2018-07-06T15:51:23.830Z,95971.00
2018-07-06T15:53:54.142Z,95960.00
2018-07-06T15:56:24.524Z,95966.00
2018-07-06T15:58:55.678Z,95963.00
2018-07-06T16:01:26.106Z,95976.00
2018-07-06T16:03:56.896Z,95972.00
2018-07-06T16:06:27.173Z,95981.00
2018-07-06T16:08:57.542Z,95979.00
2018-07-06T16:11:27.853Z,95982.00
2018-07-06T16:13:58.514Z,95987.00
2018-07-06T16:16:29.218Z,95978.00
2018-07-06T16:18:59.977Z,95977.00
2018-07-06T16:21:31.672Z,95986.00
2018-07-06T16:24:02.106Z,95993.00
2018-07-06T16:26:33.189Z,95986.00
2018-07-06T16:29:13.008Z,95993.00
2018-07-06T16:31:43.345Z,95983.00
2018-07-06T16:34:14.323Z,95988.00
2018-07-06T16:36:48.202Z,95990.00
2018-07-06T16:39:18.738Z,95989.00
2018-07-06T16:41:49.226Z,95993.00
2018-07-06T16:44:19.622Z,95997.00
2018-07-06T16:47:15.284Z,96016.00
2018-07-06T16:49:56.202Z,96001.00
2018-07-06T16:52:26.607Z,96005.00
2018-07-06T16:54:56.814Z,96009.00
2018-07-06T16:57:30.663Z,96010.00
2018-07-06T17:00:02.050Z,96015.00
2018-07-06T17:02:33.963Z,96013.00
2018-07-06T17:05:04.715Z,96014.00
2018-07-06T17:07:34.959Z,96014.00
2018-07-06T17:10:05.273Z,96005.00
2018-07-06T17:12:35.677Z,96005.00
2018-07-06T17:15:06.312Z,96018.00
2018-07-06T17:17:37.923Z,96014.00
2018-07-06T17:20:14.936Z,96022.00
2018-07-06T17:22:45.754Z,96015.00
2018-07-06T17:25:18.143Z,96021.00
2018-07-06T17:27:49.273Z,96021.00
2018-07-06T17:30:19.612Z,96027.00
2018-07-06T17:32:50.201Z,96028.00
2018-07-06T17:35:20.498Z,96032.00
2018-07-06T17:37:50.744Z,96032.00
2018-07-06T17:40:21.002Z,96039.00
2018-07-06T17:42:57.108Z,96045.00
2018-07-06T17:45:33.183Z,96044.00
2018-07-06T17:48:03.763Z,96045.00
2018-07-06T17:50:34.019Z,96062.00
2018-07-06T17:53:04.321Z,96067.00
2018-07-06T17:55:34.793Z,96088.00
2018-07-06T17:58:05.141Z,96104.00
2018-07-06T18:00:36.023Z,96107.00
2018-07-06T18:03:06.443Z,96102.00
2018-07-06T18:05:36.704Z,96109.00
2018-07-06T18:08:06.918Z,96117.00
2018-07-06T18:10:37.212Z,96119.00
2018-07-06T18:13:07.482Z,96132.00
2018-07-06T18:15:37.771Z,96132.00
2018-07-06T18:18:08.019Z,96125.00
2018-07-06T18:20:38.321Z,96124.00
2018-07-06T18:23:08.611Z,96028.00
2018-07-06T18:25:38.854Z,96111.00
2018-07-06T18:28:09.118Z,96104.00
2018-07-06T18:30:39.458Z,96094.00
2018-07-06T18:33:12.149Z,96087.00
2018-07-06T18:35:43.290Z,96082.00
2018-07-06T18:38:13.607Z,96075.00
2018-07-06T18:40:45.172Z,96081.00
2018-07-06T18:43:16.037Z,96092.00
2018-07-06T18:45:46.263Z,96092.00
2018-07-06T18:48:16.810Z,96097.00
2018-07-06T18:50:47.082Z,96094.00
2018-07-06T18:53:17.263Z,96102.00
2018-07-06T18:55:47.459Z,96095.00
2018-07-06T18:58:17.691Z,96106.00
2018-07-06T19:00:48.014Z,96101.00
2018-07-06T19:03:18.202Z,96100.00
2018-07-06T19:05:48.996Z,96109.00
2018-07-06T19:08:28.598Z,96106.00
2018-07-06T19:11:05.695Z,96101.00
2018-07-06T19:13:36.524Z,96100.00
2018-07-06T19:16:06.966Z,96107.00
2018-07-06T19:18:37.962Z,96134.00
2018-07-06T19:21:08.758Z,96106.00
2018-07-06T19:23:38.995Z,96114.00
2018-07-06T19:26:11.195Z,96109.00
2018-07-06T19:28:41.450Z,96115.00
2018-07-06T19:31:12.010Z,96129.00
2018-07-06T19:33:42.223Z,96128.00
2018-07-06T19:36:12.551Z,96135.00
2018-07-06T19:38:42.842Z,96139.00
2018-07-06T19:41:21.212Z,96146.00
2018-07-06T19:43:52.098Z,96156.00
2018-07-06T19:46:22.350Z,96156.00
2018-07-06T19:48:52.782Z,96160.00
2018-07-06T19:51:23.068Z,96169.00
2018-07-06T19:53:53.414Z,96167.00
2018-07-06T19:56:26.929Z,96171.00
2018-07-06T19:59:01.112Z,96169.00
2018-07-06T20:01:33.052Z,96190.00
2018-07-06T20:04:03.499Z,96187.00
2018-07-06T20:06:33.748Z,96187.00
2018-07-06T20:09:04.908Z,96195.00
2018-07-06T20:11:37.175Z,96200.00
2018-07-06T20:14:11.840Z,96199.00
2018-07-06T20:16:43.352Z,96210.00
2018-07-06T20:19:19.993Z,96206.00
2018-07-06T20:21:54.431Z,96208.00
2018-07-06T20:24:26.011Z,96206.00
2018-07-06T20:26:57.209Z,96211.00
2018-07-06T20:29:27.907Z,96220.00
2018-07-06T20:32:00.255Z,96211.00
2018-07-06T20:34:30.871Z,96228.00
2018-07-06T20:37:01.150Z,96228.00
2018-07-06T20:39:32.645Z,96232.00
2018-07-06T20:42:03.758Z,96238.00
2018-07-06T20:44:34.224Z,96237.00
2018-07-06T20:47:04.832Z,96245.00
2018-07-06T20:49:35.198Z,96234.00
2018-07-06T20:52:05.967Z,96242.00
2018-07-06T20:54:36.318Z,96239.00
2018-07-06T20:57:06.765Z,96236.00
2018-07-06T20:59:37.055Z,96242.00
2018-07-06T21:02:07.557Z,96247.00
2018-07-06T21:04:38.118Z,96244.00
2018-07-06T21:07:08.665Z,96246.00
2018-07-06T21:09:39.041Z,96243.00
2018-07-06T21:12:09.787Z,96253.00
2018-07-06T21:14:40.223Z,96244.00
2018-07-06T21:17:10.746Z,96255.00
2018-07-06T21:19:41.915Z,96254.00
2018-07-06T21:22:13.957Z,96244.00
2018-07-06T21:24:45.228Z,96245.00
2018-07-06T21:27:16.647Z,96255.00
2018-07-06T21:29:47.433Z,96247.00
2018-07-06T21:32:18.350Z,96242.00
2018-07-06T21:34:49.114Z,96248.00
2018-07-06T21:37:19.845Z,96261.00
2018-07-06T21:39:55.710Z,96259.00
2018-07-06T21:42:27.251Z,96263.00
2018-07-06T21:45:00.185Z,96269.00
2018-07-06T21:47:31.594Z,96263.00
2018-07-06T21:50:02.819Z,96260.00
2018-07-06T21:52:34.911Z,96260.00
2018-07-06T21:55:06.306Z,96260.00
2018-07-06T21:57:37.919Z,96263.00
2018-07-06T22:00:11.067Z,96270.00
2018-07-06T22:02:54.813Z,96270.00
2018-07-06T22:05:26.679Z,96272.00
2018-07-06T22:07:59.003Z,96281.00
2018-07-06T22:10:30.050Z,96269.00
2018-07-06T22:13:02.038Z,96277.00
2018-07-06T22:15:49.240Z,96280.00
2018-07-06T22:18:24.667Z,96284.00
2018-07-06T22:21:06.502Z,96279.00
2018-07-06T22:23:37.587Z,96281.00
2018-07-06T22:26:08.798Z,96273.00
2018-07-06T22:28:40.004Z,96189.00
2018-07-06T22:31:11.598Z,96275.00
2018-07-06T22:33:43.072Z,96281.00
2018-07-06T22:36:14.666Z,96283.00
2018-07-06T22:38:45.505Z,96281.00
2018-07-06T22:41:16.614Z,96285.00
2018-07-06T22:43:47.795Z,96281.00
2018-07-06T22:46:18.844Z,96287.00
2018-07-06T22:48:49.515Z,96292.00
2018-07-06T22:51:20.438Z,96293.00
2018-07-06T22:53:51.959Z,96288.00
2018-07-06T22:56:22.195Z,96284.00
2018-07-06T22:58:52.444Z,96281.00
2018-07-06T23:01:23.737Z,96281.00
2018-07-06T23:03:54.578Z,96286.00
2018-07-06T23:06:24.974Z,96279.00
2018-07-06T23:08:55.300Z,96278.00
2018-07-06T23:11:25.547Z,96267.00
2018-07-06T23:13:55.842Z,96281.00
2018-07-06T23:16:26.075Z,96272.00
2018-07-06T23:18:56.319Z,96272.00
2018-07-06T23:21:26.526Z,96273.00
2018-07-06T23:23:56.878Z,96263.00
2018-07-06T23:26:27.114Z,96272.00
2018-07-06T23:28:57.429Z,96271.00
2018-07-06T23:31:27.736Z,96271.00
2018-07-06T23:33:58.134Z,96277.00
2018-07-06T23:36:28.823Z,96277.00
2018-07-06T23:38:59.107Z,96278.00
2018-07-06T23:41:29.775Z,96273.00
2018-07-06T23:44:00.083Z,96274.00
2018-07-06T23:46:30.281Z,96273.00
2018-07-06T23:49:00.854Z,96276.00
2018-07-06T23:51:31.210Z,96274.00
2018-07-06T23:54:02.079Z,96287.00
2018-07-06T23:56:32.802Z,96278.00
2018-07-06T23:59:03.258Z,96280.00
